createdAt,value
2023-04-17T00:01:05.863Z,-0.59
2023-04-17T00:04:11.898Z,-0.49
2023-04-17T00:07:17.768Z,-0.60
2023-04-17T00:10:24.968Z,-0.40
2023-04-17T00:13:31.655Z,-0.42
2023-04-17T00:16:39.481Z,-0.55
2023-04-17T00:19:50.258Z,-0.45
2023-04-17T00:22:56.790Z,-0.25
2023-04-17T00:26:03.403Z,-0.29
2023-04-17T00:29:10.237Z,-0.19
2023-04-17T00:32:16.948Z,-0.25
2023-04-17T00:35:21.124Z,-0.35
2023-04-17T00:38:25.692Z,-0.33
2023-04-17T00:41:30.229Z,-0.10
2023-04-17T00:44:34.443Z,0.05
2023-04-17T00:47:39.735Z,0.29
2023-04-17T00:50:47.494Z,0.40
2023-04-17T00:53:51.486Z,0.44
2023-04-17T00:56:57.452Z,0.41
2023-04-17T01:00:02.636Z,0.46
2023-04-17T01:03:07.475Z,0.54
2023-04-17T01:06:13.297Z,0.75
2023-04-17T01:09:20.865Z,0.89
2023-04-17T01:12:25.914Z,1.20
2023-04-17T01:15:31.453Z,1.17
2023-04-17T01:18:34.560Z,1.23
2023-04-17T01:21:38.747Z,1.52
2023-04-17T01:24:43.094Z,1.50
2023-04-17T01:27:47.613Z,1.65
2023-04-17T01:30:51.372Z,1.92
2023-04-17T01:33:55.932Z,2.30
2023-04-17T01:36:59.950Z,2.37
2023-04-17T01:40:07.980Z,2.41
2023-04-17T01:43:11.996Z,2.34
2023-04-17T01:46:16.414Z,2.10
2023-04-17T01:49:20.978Z,2.12
2023-04-17T01:52:24.458Z,2.29
2023-04-17T01:55:28.355Z,2.50
2023-04-17T01:58:32.444Z,2.47
2023-04-17T02:01:37.943Z,2.78
2023-04-17T02:04:45.978Z,3.03
2023-04-17T02:07:52.573Z,3.26
2023-04-17T02:10:57.528Z,3.33
2023-04-17T02:14:01.285Z,3.51
2023-04-17T02:17:06.362Z,3.63
2023-04-17T02:20:12.123Z,3.70
2023-04-17T02:23:16.564Z,3.82
2023-04-17T02:26:19.864Z,4.01
2023-04-17T02:29:23.557Z,4.25
2023-04-17T02:32:27.291Z,4.02
2023-04-17T02:35:34.140Z,4.22
2023-04-17T02:38:39.082Z,4.49
2023-04-17T02:41:46.978Z,4.87
2023-04-17T02:44:53.330Z,4.70
2023-04-17T02:47:58.108Z,5.01
2023-04-17T02:51:02.410Z,5.16
2023-04-17T02:57:27.051Z,4.50
2023-04-17T03:00:30.850Z,4.81
2023-04-17T03:03:36.382Z,4.95
2023-04-17T03:06:43.122Z,4.85
2023-04-17T03:09:48.206Z,4.92
2023-04-17T03:13:04.010Z,4.81
2023-04-17T03:16:10.086Z,4.61
2023-04-17T03:19:15.300Z,4.64
2023-04-17T03:22:18.949Z,5.02
2023-04-17T03:25:24.849Z,4.88
2023-04-17T03:28:29.341Z,4.77
2023-04-17T03:31:34.246Z,4.58
2023-04-17T03:34:39.036Z,4.39
2023-04-17T03:37:43.807Z,4.47
2023-04-17T03:40:51.082Z,4.74
2023-04-17T03:43:56.227Z,5.05
2023-04-17T03:47:00.124Z,5.04
2023-04-17T03:50:04.235Z,5.07
2023-04-17T03:53:13.354Z,5.12
2023-04-17T03:56:19.000Z,5.53
2023-04-17T03:59:23.665Z,5.39
2023-04-17T04:02:29.817Z,5.71
2023-04-17T04:05:33.823Z,6.25
2023-04-17T04:08:37.519Z,6.25
2023-04-17T04:11:42.235Z,6.94
2023-04-17T04:14:46.548Z,7.43
2023-04-17T04:17:53.920Z,7.55
2023-04-17T04:20:58.153Z,7.88
2023-04-17T04:24:08.012Z,7.46
2023-04-17T04:27:17.872Z,7.42
2023-04-17T04:30:26.273Z,7.64
2023-04-17T04:33:50.241Z,7.98
2023-04-17T04:36:58.281Z,7.93
2023-04-17T04:40:13.776Z,8.09
2023-04-17T04:43:20.797Z,8.54
2023-04-17T04:46:30.346Z,9.00
2023-04-17T04:49:34.948Z,9.35
2023-04-17T04:52:38.948Z,8.71
2023-04-17T04:55:57.316Z,8.77
2023-04-17T04:59:02.902Z,9.11
2023-04-17T05:02:10.475Z,9.62
2023-04-17T05:05:15.065Z,9.98
2023-04-17T05:08:19.162Z,10.34
2023-04-17T05:11:31.870Z,10.56
2023-04-17T05:14:37.293Z,10.49
2023-04-17T05:17:44.266Z,10.35
2023-04-17T05:20:50.332Z,9.67
2023-04-17T05:23:55.504Z,9.34
2023-04-17T05:26:59.156Z,8.50
2023-04-17T05:30:03.251Z,8.19
2023-04-17T05:33:08.401Z,8.26
2023-04-17T05:36:23.314Z,7.59
2023-04-17T05:39:30.292Z,7.29
2023-04-17T05:42:36.320Z,7.35
2023-04-17T05:45:42.249Z,7.50
2023-04-17T05:48:47.038Z,7.71
2023-04-17T05:51:50.723Z,8.01
2023-04-17T05:54:55.531Z,8.19
2023-04-17T05:58:03.876Z,7.88
2023-04-17T06:01:13.812Z,7.46
2023-04-17T06:04:18.683Z,7.26
2023-04-17T06:07:24.410Z,7.46
2023-04-17T06:10:28.652Z,7.50
2023-04-17T06:13:34.022Z,7.49
2023-04-17T06:16:38.525Z,7.59
2023-04-17T06:19:45.999Z,7.66
2023-04-17T06:22:50.455Z,7.73
2023-04-17T06:25:55.014Z,7.62
2023-04-17T06:28:59.095Z,7.56
2023-04-17T06:32:06.077Z,7.70
2023-04-17T06:35:12.567Z,7.74
2023-04-17T06:38:35.428Z,7.94
2023-04-17T06:41:39.192Z,7.90
2023-04-17T06:44:47.045Z,8.09
2023-04-17T06:47:50.551Z,8.25
2023-04-17T06:50:54.676Z,8.48
2023-04-17T06:53:58.339Z,9.28
2023-04-17T06:57:04.219Z,9.25
2023-04-17T07:00:08.325Z,9.24
2023-04-17T07:03:14.618Z,9.47
2023-04-17T07:06:20.051Z,9.46
2023-04-17T07:09:24.362Z,10.04
2023-04-17T07:12:28.100Z,11.04
2023-04-17T07:15:32.595Z,12.10
2023-04-17T07:18:36.107Z,11.87
2023-04-17T07:21:39.950Z,11.89
2023-04-17T07:24:44.443Z,12.90
2023-04-17T07:27:49.087Z,13.76
2023-04-17T07:30:55.614Z,13.50
2023-04-17T07:34:00.376Z,13.54
2023-04-17T07:37:04.526Z,13.03
2023-04-17T07:40:10.675Z,12.31
2023-04-17T07:43:14.848Z,12.78
2023-04-17T07:46:18.836Z,13.48
2023-04-17T07:49:22.173Z,14.16
2023-04-17T07:52:27.014Z,13.90
2023-04-17T07:55:31.331Z,13.40
2023-04-17T07:58:36.679Z,13.38
2023-04-17T08:01:41.860Z,13.54
2023-04-17T08:04:45.513Z,13.36
2023-04-17T08:07:48.558Z,13.76
2023-04-17T08:10:53.487Z,14.03
2023-04-17T08:13:57.480Z,13.57
2023-04-17T08:17:01.503Z,13.57
2023-04-17T08:20:12.745Z,13.68
2023-04-17T08:23:16.607Z,13.11
2023-04-17T08:26:21.314Z,12.96
2023-04-17T08:29:25.835Z,13.11
2023-04-17T08:32:28.821Z,13.54
2023-04-17T08:35:32.254Z,13.89
2023-04-17T08:38:35.323Z,14.37
2023-04-17T08:41:53.425Z,14.22
2023-04-17T08:45:01.727Z,14.03
2023-04-17T08:48:06.905Z,14.27
2023-04-17T08:51:10.974Z,14.22
2023-04-17T08:54:14.338Z,14.38
2023-04-17T08:57:18.137Z,14.57
2023-04-17T09:00:28.436Z,14.82
2023-04-17T09:03:43.965Z,15.03
2023-04-17T09:06:54.802Z,14.85
2023-04-17T09:09:58.521Z,14.88
2023-04-17T09:13:02.330Z,15.10
2023-04-17T09:16:08.733Z,15.47
2023-04-17T09:19:13.208Z,15.94
2023-04-17T09:22:22.018Z,16.10
2023-04-17T09:25:27.778Z,16.12
2023-04-17T09:28:36.027Z,16.20
2023-04-17T09:31:41.351Z,16.55
2023-04-17T09:34:44.350Z,17.15
2023-04-17T09:37:55.595Z,16.04
2023-04-17T09:40:58.672Z,15.34
2023-04-17T09:44:06.077Z,15.02
2023-04-17T09:47:10.557Z,14.23
2023-04-17T09:50:18.755Z,14.42
2023-04-17T09:53:21.949Z,12.86
2023-04-17T09:56:27.651Z,14.24
2023-04-17T09:59:31.620Z,15.39
2023-04-17T10:02:35.902Z,16.26
2023-04-17T10:05:40.031Z,17.40
2023-04-17T10:08:43.948Z,16.78
2023-04-17T10:11:48.308Z,15.84
2023-04-17T10:14:53.394Z,14.95
2023-04-17T10:18:17.379Z,13.61
2023-04-17T10:21:23.308Z,13.69
2023-04-17T10:24:27.671Z,13.85
2023-04-17T10:27:33.360Z,14.02
2023-04-17T10:30:55.087Z,14.16
2023-04-17T10:33:59.293Z,14.02
2023-04-17T10:37:03.734Z,14.13
2023-04-17T10:40:12.927Z,13.65
2023-04-17T10:43:18.619Z,13.34
2023-04-17T10:46:27.835Z,13.26
2023-04-17T10:49:49.014Z,13.30
2023-04-17T10:52:52.975Z,13.11
2023-04-17T10:55:58.170Z,12.72
2023-04-17T10:59:15.235Z,12.31
2023-04-17T11:02:34.780Z,11.58
2023-04-17T11:05:48.549Z,10.77
2023-04-17T11:08:52.737Z,9.66
2023-04-17T11:12:00.510Z,8.77
2023-04-17T11:15:04.888Z,7.78
2023-04-17T11:18:08.953Z,6.42
2023-04-17T11:21:17.327Z,5.49
2023-04-17T11:24:36.932Z,4.84
2023-04-17T11:27:40.268Z,4.40
2023-04-17T11:30:45.845Z,4.06
2023-04-17T11:33:51.813Z,3.78
2023-04-17T11:37:01.641Z,3.56
2023-04-17T11:40:17.281Z,3.31
2023-04-17T11:46:54.270Z,2.89
2023-04-17T11:49:58.365Z,2.73
2023-04-17T11:53:04.196Z,2.61
2023-04-17T11:56:19.318Z,2.44
2023-04-17T11:59:38.396Z,2.29
2023-04-17T12:02:42.720Z,2.19
2023-04-17T12:06:02.947Z,2.08
2023-04-17T12:09:08.541Z,1.96
2023-04-17T12:12:13.068Z,1.88
2023-04-17T12:15:17.177Z,1.83
2023-04-17T12:18:21.113Z,1.75
2023-04-17T12:21:26.543Z,1.65
2023-04-17T12:24:35.978Z,1.60
2023-04-17T12:30:58.431Z,1.41
2023-04-17T12:34:03.554Z,1.34
2023-04-17T12:37:08.243Z,1.27
2023-04-17T12:40:14.788Z,1.16
2023-04-17T12:43:19.989Z,1.07
2023-04-17T12:46:25.296Z,0.97
2023-04-17T12:49:29.198Z,0.92
2023-04-17T12:52:33.566Z,0.88
2023-04-17T12:55:49.311Z,0.82
2023-04-17T12:58:52.599Z,0.74
2023-04-17T13:02:06.377Z,0.69
2023-04-17T13:05:14.205Z,0.68
2023-04-17T13:08:19.343Z,0.65
2023-04-17T13:11:23.560Z,0.54
2023-04-17T13:14:27.221Z,0.46
2023-04-17T13:17:31.037Z,0.46
2023-04-17T13:20:34.524Z,0.43
2023-04-17T13:23:37.596Z,0.36
2023-04-17T13:26:43.914Z,0.31
2023-04-17T13:29:48.337Z,0.26
2023-04-17T13:32:52.282Z,0.20
2023-04-17T13:35:56.213Z,0.16
2023-04-17T13:39:00.188Z,0.14
2023-04-17T13:42:04.045Z,0.17
2023-04-17T13:45:09.013Z,0.14
2023-04-17T13:48:12.753Z,0.14
2023-04-17T13:51:17.258Z,0.09
2023-04-17T14:01:39.493Z,-0.04
2023-04-17T14:04:44.896Z,-0.07
2023-04-17T14:07:48.861Z,-0.12
2023-04-17T14:10:52.306Z,-0.12
2023-04-17T14:13:56.592Z,-0.18
2023-04-17T14:17:00.023Z,-0.21
2023-04-17T14:20:04.163Z,-0.17
2023-04-17T14:23:08.476Z,-0.17
2023-04-17T14:26:12.792Z,-0.21
2023-04-17T14:29:16.680Z,-0.23
2023-04-17T14:32:20.424Z,-0.22
2023-04-17T14:35:24.431Z,-0.28
2023-04-17T14:38:27.459Z,-0.26
2023-04-17T14:41:32.622Z,-0.36
2023-04-17T14:44:36.409Z,-0.38
2023-04-17T14:47:40.155Z,-0.43
2023-04-17T14:50:44.056Z,-0.46
2023-04-17T14:53:47.666Z,-0.50
2023-04-17T14:56:51.404Z,-0.53
2023-04-17T14:59:54.731Z,-0.55
2023-04-17T15:02:59.423Z,-0.62
2023-04-17T15:06:04.035Z,-0.65
2023-04-17T15:09:07.926Z,-0.60
2023-04-17T15:12:12.287Z,-0.63
2023-04-17T15:15:20.515Z,-0.62
2023-04-17T15:18:29.765Z,-0.67
2023-04-17T15:21:37.249Z,-0.69
2023-04-17T15:24:44.127Z,-0.70
2023-04-17T15:27:50.298Z,-0.72
2023-04-17T15:30:58.208Z,-0.76
2023-04-17T15:34:03.965Z,-0.74
2023-04-17T15:37:10.217Z,-0.76
2023-04-17T15:40:16.170Z,-0.80
2023-04-17T15:43:23.273Z,-0.80
2023-04-17T15:46:31.966Z,-0.83
2023-04-17T15:49:39.196Z,-0.84
2023-04-17T15:52:45.865Z,-0.91
2023-04-17T15:55:51.934Z,-0.93
2023-04-17T15:58:58.500Z,-0.97
2023-04-17T16:02:04.948Z,-1.01
2023-04-17T16:05:11.849Z,-1.05
2023-04-17T16:08:18.524Z,-1.07
2023-04-17T16:11:25.203Z,-1.15
2023-04-17T16:14:32.191Z,-1.18
2023-04-17T16:17:38.357Z,-1.24
2023-04-17T16:20:44.980Z,-1.28
2023-04-17T16:23:51.197Z,-1.25
2023-04-17T16:26:59.707Z,-1.28
2023-04-17T16:30:06.384Z,-1.31
2023-04-17T16:33:13.173Z,-1.34
2023-04-17T16:36:19.733Z,-1.36
2023-04-17T16:39:27.642Z,-1.41
2023-04-17T16:42:35.265Z,-1.45
2023-04-17T16:45:42.430Z,-1.52
2023-04-17T16:48:49.522Z,-1.55
2023-04-17T16:51:55.990Z,-1.63
2023-04-17T16:55:02.454Z,-1.66
2023-04-17T16:58:08.939Z,-1.66
2023-04-17T17:01:15.792Z,-1.74
2023-04-17T17:04:22.129Z,-1.74
2023-04-17T17:07:28.876Z,-1.79
2023-04-17T17:10:35.441Z,-1.83
2023-04-17T17:13:42.123Z,-1.84
2023-04-17T17:16:48.421Z,-1.89
2023-04-17T17:19:55.165Z,-1.95
2023-04-17T17:23:01.523Z,-2.02
2023-04-17T17:26:08.524Z,-2.02
2023-04-17T17:29:14.658Z,-2.07
2023-04-17T17:32:22.039Z,-2.11
2023-04-17T17:35:28.336Z,-2.19
2023-04-17T17:38:34.614Z,-2.22
2023-04-17T17:41:40.881Z,-2.27
2023-04-17T17:44:48.195Z,-2.36
2023-04-17T17:47:54.568Z,-2.42
2023-04-17T17:51:00.910Z,-2.48
2023-04-17T17:54:08.119Z,-2.50
2023-04-17T17:57:16.932Z,-2.59
2023-04-17T18:00:24.621Z,-2.66
2023-04-17T18:03:33.186Z,-2.67
2023-04-17T18:06:42.189Z,-2.74
2023-04-17T18:09:50.701Z,-2.76
2023-04-17T18:12:57.468Z,-2.77
2023-04-17T18:16:07.809Z,-2.81
2023-04-17T18:19:14.720Z,-2.79
2023-04-17T18:22:22.927Z,-2.79
2023-04-17T18:25:29.401Z,-2.80
2023-04-17T18:28:38.543Z,-2.86
2023-04-17T18:31:47.697Z,-2.87
2023-04-17T18:34:57.413Z,-2.87
2023-04-17T18:38:06.360Z,-2.88
2023-04-17T18:41:15.584Z,-2.93
2023-04-17T18:44:24.815Z,-2.97
2023-04-17T18:47:34.575Z,-3.01
2023-04-17T18:50:43.285Z,-3.04
2023-04-17T18:53:53.757Z,-3.05
2023-04-17T18:57:02.580Z,-3.08
2023-04-17T19:00:12.838Z,-3.18
2023-04-17T19:03:22.333Z,-3.21
2023-04-17T19:06:33.166Z,-3.32
2023-04-17T19:09:42.403Z,-3.36
2023-04-17T19:12:52.565Z,-3.42
2023-04-17T19:16:02.048Z,-3.52
2023-04-17T19:19:13.757Z,-3.60
2023-04-17T19:22:22.423Z,-3.73
2023-04-17T19:25:31.854Z,-3.87
2023-04-17T19:28:45.403Z,-4.01
2023-04-17T19:31:54.778Z,-4.08
2023-04-17T19:35:05.707Z,-4.15
2023-04-17T19:38:17.219Z,-4.18
2023-04-17T19:41:27.359Z,-4.22
2023-04-17T19:44:36.687Z,-4.25
2023-04-17T19:47:46.146Z,-4.26
2023-04-17T19:50:55.689Z,-4.33
2023-04-17T19:54:06.352Z,-4.35
2023-04-17T19:57:18.665Z,-4.29
2023-04-17T20:00:29.220Z,-4.24
2023-04-17T20:03:40.368Z,-4.22
2023-04-17T20:06:48.613Z,-4.21
2023-04-17T20:09:57.033Z,-4.19
2023-04-17T20:13:06.174Z,-4.17
2023-04-17T20:16:15.219Z,-4.15
2023-04-17T20:19:23.522Z,-4.11
2023-04-17T20:22:33.382Z,-4.14
2023-04-17T20:25:44.253Z,-4.21
2023-04-17T20:28:53.692Z,-4.14
2023-04-17T20:32:03.995Z,-4.05
2023-04-17T20:35:14.726Z,-3.97
2023-04-17T20:38:23.443Z,-4.01
2023-04-17T20:41:31.982Z,-4.01
2023-04-17T20:44:40.375Z,-3.94
2023-04-17T20:51:05.333Z,-3.87
2023-04-17T20:54:14.450Z,-3.81
2023-04-17T20:57:24.610Z,-3.81
2023-04-17T21:00:33.020Z,-3.77
2023-04-17T21:03:43.266Z,-3.81
2023-04-17T21:06:51.792Z,-3.81
2023-04-17T21:10:00.735Z,-3.91
2023-04-17T21:13:09.346Z,-4.01
2023-04-17T21:16:19.876Z,-4.04
2023-04-17T21:19:33.042Z,-4.01
2023-04-17T21:22:43.206Z,-3.94
2023-04-17T21:25:54.073Z,-3.88
2023-04-17T21:29:03.114Z,-3.87
2023-04-17T21:32:11.941Z,-3.84
2023-04-17T21:35:21.485Z,-3.87
2023-04-17T21:38:29.792Z,-3.88
2023-04-17T21:41:38.923Z,-3.91
2023-04-17T21:44:48.889Z,-4.00
2023-04-17T21:47:58.576Z,-4.05
2023-04-17T21:51:09.603Z,-4.09
2023-04-17T21:54:19.159Z,-4.18
2023-04-17T21:57:27.896Z,-4.05
2023-04-17T22:00:37.225Z,-4.02
2023-04-17T22:03:47.311Z,-4.04
2023-04-17T22:06:52.785Z,-3.97
2023-04-17T22:09:56.708Z,-3.93
2023-04-17T22:12:59.697Z,-3.97
2023-04-17T22:16:03.418Z,-3.95
2023-04-17T22:19:06.497Z,-3.81
2023-04-17T22:22:09.897Z,-3.83
2023-04-17T22:25:13.135Z,-3.59
2023-04-17T22:28:17.061Z,-3.30
2023-04-17T22:31:21.675Z,-3.08
2023-04-17T22:34:26.328Z,-3.03
2023-04-17T22:37:29.427Z,-2.94
2023-04-17T22:40:33.624Z,-2.73
2023-04-17T22:43:37.914Z,-2.57
2023-04-17T22:46:41.287Z,-2.50
2023-04-17T22:49:45.158Z,-2.50
2023-04-17T22:52:48.385Z,-2.39
2023-04-17T22:56:03.413Z,-2.29
2023-04-17T22:59:08.644Z,-2.24
2023-04-17T23:02:13.318Z,-2.12
2023-04-17T23:05:18.368Z,-2.15
2023-04-17T23:08:23.246Z,-1.98
2023-04-17T23:11:28.171Z,-1.93
2023-04-17T23:14:33.107Z,-1.81
2023-04-17T23:17:39.226Z,-1.77
2023-04-17T23:20:44.405Z,-1.81
2023-04-17T23:23:49.442Z,-1.71
2023-04-17T23:26:56.453Z,-1.53
2023-04-17T23:30:02.280Z,-1.21
2023-04-17T23:33:07.515Z,-0.87
2023-04-17T23:36:12.476Z,-0.63
2023-04-17T23:39:17.504Z,-0.40
2023-04-17T23:42:23.151Z,-0.11
2023-04-17T23:45:28.606Z,0.19
2023-04-17T23:48:33.752Z,0.37
2023-04-17T23:51:38.876Z,0.57
2023-04-17T23:54:43.516Z,0.82
2023-04-17T23:57:48.451Z,0.92
